sensor_id;sensor_type;location;lat;lon;timestamp;pressure;altitude;pressure_sealevel;temperature;humidity
68456;BME280;55437;55.046;38.838;2023-08-30T00:01:14;99825.97;;;17.16;75.17
68456;BME280;55437;55.046;38.838;2023-08-30T00:03:40;99826.81;;;17.16;74.98
68456;BME280;55437;55.046;38.838;2023-08-30T00:06:06;99819.88;;;17.17;74.66
68456;BME280;55437;55.046;38.838;2023-08-30T00:08:33;99819.88;;;17.17;74.92
68456;BME280;55437;55.046;38.838;2023-08-30T00:10:59;99832.09;;;17.15;75.04
68456;BME280;55437;55.046;38.838;2023-08-30T00:13:26;99824.59;;;17.10;75.03
68456;BME280;55437;55.046;38.838;2023-08-30T00:15:52;99832.47;;;17.09;75.37
68456;BME280;55437;55.046;38.838;2023-08-30T00:18:19;99828.03;;;17.11;75.27
68456;BME280;55437;55.046;38.838;2023-08-30T00:20:45;99839.06;;;17.14;75.12
68456;BME280;55437;55.046;38.838;2023-08-30T00:23:11;99831.16;;;17.16;75.40
68456;BME280;55437;55.046;38.838;2023-08-30T00:25:37;99831.09;;;17.17;75.24
68456;BME280;55437;55.046;38.838;2023-08-30T00:28:03;99828.41;;;17.19;75.17
68456;BME280;55437;55.046;38.838;2023-08-30T00:30:28;99827.56;;;17.18;75.08
68456;BME280;55437;55.046;38.838;2023-08-30T00:32:54;99835.25;;;17.20;75.08
68456;BME280;55437;55.046;38.838;2023-08-30T00:35:21;99832.94;;;17.15;75.16
68456;BME280;55437;55.046;38.838;2023-08-30T00:37:47;99832.09;;;17.15;75.23
68456;BME280;55437;55.046;38.838;2023-08-30T00:40:13;99832.09;;;17.15;75.17
68456;BME280;55437;55.046;38.838;2023-08-30T00:42:39;99833.88;;;17.14;75.30
68456;BME280;55437;55.046;38.838;2023-08-30T00:45:06;99837.19;;;17.16;75.42
68456;BME280;55437;55.046;38.838;2023-08-30T00:47:33;99832.84;;;17.17;75.36
68456;BME280;55437;55.046;38.838;2023-08-30T00:50:00;99837.03;;;17.19;75.54
68456;BME280;55437;55.046;38.838;2023-08-30T00:52:26;99829.22;;;17.19;75.42
68456;BME280;55437;55.046;38.838;2023-08-30T00:54:52;99830.91;;;17.20;75.36
68456;BME280;55437;55.046;38.838;2023-08-30T00:57:18;99822.38;;;17.18;75.45
68456;BME280;55437;55.046;38.838;2023-08-30T00:59:43;99825.06;;;17.17;75.30
68456;BME280;55437;55.046;38.838;2023-08-30T01:02:09;99818.09;;;17.17;75.46
68456;BME280;55437;55.046;38.838;2023-08-30T01:04:35;99825.06;;;17.17;75.55
68456;BME280;55437;55.046;38.838;2023-08-30T01:07:01;99826.19;;;17.13;75.58
68456;BME280;55437;55.046;38.838;2023-08-30T01:09:27;99833.03;;;17.14;75.72
68456;BME280;55437;55.046;38.838;2023-08-30T01:14:50;99839.78;;;17.16;75.71
68456;BME280;55437;55.046;38.838;2023-08-30T01:17:18;99834.50;;;17.18;75.63
68456;BME280;55437;55.046;38.838;2023-08-30T01:22:17;99827.00;;;17.13;75.58
68456;BME280;55437;55.046;38.838;2023-08-30T01:25:15;99830.53;;;17.12;76.11
68456;BME280;55437;55.046;38.838;2023-08-30T01:27:45;99833.03;;;17.14;75.96
68456;BME280;55437;55.046;38.838;2023-08-30T01:30:13;99830.34;;;17.15;76.00
68456;BME280;55437;55.046;38.838;2023-08-30T01:32:41;99827.84;;;17.14;76.03
68456;BME280;55437;55.046;38.838;2023-08-30T01:35:08;99831.28;;;17.14;75.79
68456;BME280;55437;55.046;38.838;2023-08-30T01:37:35;99828.69;;;17.14;75.95
68456;BME280;55437;55.046;38.838;2023-08-30T01:40:02;99832.22;;;17.13;75.91
68456;BME280;55437;55.046;38.838;2023-08-30T01:42:31;99832.28;;;17.12;75.97
68456;BME280;55437;55.046;38.838;2023-08-30T01:45:00;99831.38;;;17.13;76.18
68456;BME280;55437;55.046;38.838;2023-08-30T01:47:27;99835.06;;;17.09;76.26
68456;BME280;55437;55.046;38.838;2023-08-30T01:49:55;99846.44;;;17.06;76.40
68456;BME280;55437;55.046;38.838;2023-08-30T01:52:23;99837.81;;;17.06;76.51
68456;BME280;55437;55.046;38.838;2023-08-30T01:54:51;99840.50;;;17.04;76.43
68456;BME280;55437;55.046;38.838;2023-08-30T01:57:19;99843.00;;;17.06;76.54
68456;BME280;55437;55.046;38.838;2023-08-30T01:59:45;99844.78;;;17.05;76.61
68456;BME280;55437;55.046;38.838;2023-08-30T02:02:11;99842.38;;;17.02;76.54
68456;BME280;55437;55.046;38.838;2023-08-30T02:04:37;99840.59;;;17.03;76.80
68456;BME280;55437;55.046;38.838;2023-08-30T02:07:04;99850.88;;;17.04;76.87
68456;BME280;55437;55.046;38.838;2023-08-30T02:09:45;99844.03;;;17.03;76.86
68456;BME280;55437;55.046;38.838;2023-08-30T02:12:16;99845.69;;;17.04;76.99
68456;BME280;55437;55.046;38.838;2023-08-30T02:14:46;99856.06;;;17.04;76.99
68456;BME280;55437;55.046;38.838;2023-08-30T02:17:14;99850.97;;;17.03;77.05
68456;BME280;55437;55.046;38.838;2023-08-30T02:19:42;99852.63;;;17.04;77.19
68456;BME280;55437;55.046;38.838;2023-08-30T02:22:09;99861.25;;;17.04;77.20
68456;BME280;55437;55.046;38.838;2023-08-30T02:24:35;99849.31;;;17.02;77.30
68456;BME280;55437;55.046;38.838;2023-08-30T02:27:00;99861.16;;;17.06;77.38
68456;BME280;55437;55.046;38.838;2023-08-30T02:29:26;99854.97;;;17.08;77.27
68456;BME280;55437;55.046;38.838;2023-08-30T02:31:52;99864.44;;;17.09;77.32
68456;BME280;55437;55.046;38.838;2023-08-30T02:34:21;99854.81;;;17.11;77.12
68456;BME280;55437;55.046;38.838;2023-08-30T02:36:47;99863.50;;;17.10;77.49
68456;BME280;55437;55.046;38.838;2023-08-30T02:39:14;99860.09;;;17.10;77.44
68456;BME280;55437;55.046;38.838;2023-08-30T02:41:41;99857.41;;;17.11;77.56
68456;BME280;55437;55.046;38.838;2023-08-30T02:44:12;99860.09;;;17.10;77.71
68456;BME280;55437;55.046;38.838;2023-08-30T02:46:41;99857.56;;;17.08;77.50
68456;BME280;55437;55.046;38.838;2023-08-30T02:49:07;99853.13;;;17.10;77.59
68456;BME280;55437;55.046;38.838;2023-08-30T02:51:35;99853.06;;;17.12;77.43
68456;BME280;55437;55.046;38.838;2023-08-30T02:54:01;99864.19;;;17.14;77.47
68456;BME280;55437;55.046;38.838;2023-08-30T02:56:26;99872.88;;;17.13;77.54
68456;BME280;55437;55.046;38.838;2023-08-30T02:58:52;99869.38;;;17.14;77.59
68456;BME280;55437;55.046;38.838;2023-08-30T03:01:18;99871.00;;;17.15;77.44
68456;BME280;55437;55.046;38.838;2023-08-30T03:03:48;99872.69;;;17.16;77.65
68456;BME280;55437;55.046;38.838;2023-08-30T03:06:17;99863.13;;;17.16;77.50
68456;BME280;55437;55.046;38.838;2023-08-30T03:08:43;99868.25;;;17.18;77.74
68456;BME280;55437;55.046;38.838;2023-08-30T03:11:14;99869.00;;;17.20;77.73
68456;BME280;55437;55.046;38.838;2023-08-30T03:13:46;99870.00;;;17.17;77.69
68456;BME280;55437;55.046;38.838;2023-08-30T03:16:13;99868.16;;;17.19;77.78
68456;BME280;55437;55.046;38.838;2023-08-30T03:18:40;99863.72;;;17.21;77.90
68456;BME280;55437;55.046;38.838;2023-08-30T03:21:07;99863.72;;;17.21;78.07
68456;BME280;55437;55.046;38.838;2023-08-30T03:23:51;99861.22;;;17.20;78.16
68456;BME280;55437;55.046;38.838;2023-08-30T03:26:17;99854.25;;;17.20;78.16
68456;BME280;55437;55.046;38.838;2023-08-30T03:28:44;99862.78;;;17.22;78.37
68456;BME280;55437;55.046;38.838;2023-08-30T03:31:20;99860.28;;;17.21;78.36
68456;BME280;55437;55.046;38.838;2023-08-30T03:33:48;99859.44;;;17.20;78.57
68456;BME280;55437;55.046;38.838;2023-08-30T03:36:16;99855.00;;;17.22;78.57
68456;BME280;55437;55.046;38.838;2023-08-30T03:38:44;99855.69;;;17.26;78.75
68456;BME280;55437;55.046;38.838;2023-08-30T03:41:11;99864.94;;;17.30;78.61
68456;BME280;55437;55.046;38.838;2023-08-30T03:43:38;99845.09;;;17.29;78.43
68456;BME280;55437;55.046;38.838;2023-08-30T03:46:04;99852.63;;;17.34;78.41
68456;BME280;55437;55.046;38.838;2023-08-30T03:48:30;99858.47;;;17.37;78.42
68456;BME280;55437;55.046;38.838;2023-08-30T03:50:57;99855.78;;;17.39;78.45
68456;BME280;55437;55.046;38.838;2023-08-30T03:53:23;99857.34;;;17.41;78.37
68456;BME280;55437;55.046;38.838;2023-08-30T03:56:07;99858.16;;;17.42;78.26
68456;BME280;55437;55.046;38.838;2023-08-30T03:58:33;99858.00;;;17.45;78.38
68456;BME280;55437;55.046;38.838;2023-08-30T04:00:59;99846.59;;;17.47;78.28
68456;BME280;55437;55.046;38.838;2023-08-30T04:03:25;99842.25;;;17.48;78.36
68456;BME280;55437;55.046;38.838;2023-08-30T04:05:55;99855.97;;;17.50;78.16
68456;BME280;55437;55.046;38.838;2023-08-30T04:08:23;99849.94;;;17.49;78.41
68456;BME280;55437;55.046;38.838;2023-08-30T04:10:52;99860.13;;;17.52;78.35
68456;BME280;55437;55.046;38.838;2023-08-30T04:13:19;99866.91;;;17.55;78.06
68456;BME280;55437;55.046;38.838;2023-08-30T04:15:46;99862.44;;;17.57;78.05
68456;BME280;55437;55.046;38.838;2023-08-30T04:18:11;99865.13;;;17.55;77.94
68456;BME280;55437;55.046;38.838;2023-08-30T04:20:43;99864.22;;;17.56;77.86
68456;BME280;55437;55.046;38.838;2023-08-30T04:23:09;99864.31;;;17.55;77.77
68456;BME280;55437;55.046;38.838;2023-08-30T04:25:35;99870.25;;;17.57;78.18
68456;BME280;55437;55.046;38.838;2023-08-30T04:28:01;99871.00;;;17.59;78.05
68456;BME280;55437;55.046;38.838;2023-08-30T04:30:26;99873.94;;;17.53;78.01
68456;BME280;55437;55.046;38.838;2023-08-30T04:32:52;99876.91;;;17.47;78.11
68456;BME280;55437;55.046;38.838;2023-08-30T04:35:19;99869.69;;;17.38;78.60
68456;BME280;55437;55.046;38.838;2023-08-30T04:37:45;99872.16;;;17.39;78.55
68456;BME280;55437;55.046;38.838;2023-08-30T04:40:11;99875.97;;;17.34;78.50
68456;BME280;55437;55.046;38.838;2023-08-30T04:42:37;99879.94;;;17.39;78.50
68456;BME280;55437;55.046;38.838;2023-08-30T04:45:06;99873.13;;;17.38;78.41
68456;BME280;55437;55.046;38.838;2023-08-30T04:47:34;99880.06;;;17.38;78.44
68456;BME280;55437;55.046;38.838;2023-08-30T04:50:02;99881.75;;;17.39;78.42
68456;BME280;55437;55.046;38.838;2023-08-30T04:52:31;99883.13;;;17.44;78.29
68456;BME280;55437;55.046;38.838;2023-08-30T04:54:58;99877.09;;;17.58;78.09
68456;BME280;55437;55.046;38.838;2023-08-30T04:57:27;99879.00;;;17.70;77.94
68456;BME280;55437;55.046;38.838;2023-08-30T04:59:53;99874.25;;;17.77;77.71
68456;BME280;55437;55.046;38.838;2023-08-30T05:02:19;99872.66;;;17.88;77.58
68456;BME280;55437;55.046;38.838;2023-08-30T05:04:53;99872.03;;;17.99;77.45
68456;BME280;55437;55.046;38.838;2023-08-30T05:07:20;99877.94;;;18.01;77.09
68456;BME280;55437;55.046;38.838;2023-08-30T05:09:46;99874.50;;;18.00;76.92
68456;BME280;55437;55.046;38.838;2023-08-30T05:12:12;99879.44;;;18.05;76.76
68456;BME280;55437;55.046;38.838;2023-08-30T05:14:37;99881.00;;;18.08;76.66
68456;BME280;55437;55.046;38.838;2023-08-30T05:17:03;99888.06;;;18.06;76.50
68456;BME280;55437;55.046;38.838;2023-08-30T05:19:30;99882.31;;;18.00;76.44
68456;BME280;55437;55.046;38.838;2023-08-30T05:22:22;99873.22;;;17.93;76.51
68456;BME280;55437;55.046;38.838;2023-08-30T05:24:48;99878.59;;;17.90;76.63
68456;BME280;55437;55.046;38.838;2023-08-30T05:27:15;99886.31;;;17.92;76.40
68456;BME280;55437;55.046;38.838;2023-08-30T05:29:42;99883.34;;;17.98;76.23
68456;BME280;55437;55.046;38.838;2023-08-30T05:32:08;99884.44;;;18.08;76.05
68456;BME280;55437;55.046;38.838;2023-08-30T05:35:07;99880.44;;;18.17;75.78
68456;BME280;55437;55.046;38.838;2023-08-30T05:38:03;99883.22;;;18.14;75.61
68456;BME280;55437;55.046;38.838;2023-08-30T05:40:41;99878.31;;;18.09;75.72
68456;BME280;55437;55.046;38.838;2023-08-30T05:43:10;99873.13;;;18.09;75.88
68456;BME280;55437;55.046;38.838;2023-08-30T05:45:37;99884.97;;;18.13;75.87
68456;BME280;55437;55.046;38.838;2023-08-30T05:48:03;99887.31;;;18.18;75.72
68456;BME280;55437;55.046;38.838;2023-08-30T05:50:30;99895.66;;;18.23;75.35
68456;BME280;55437;55.046;38.838;2023-08-30T05:52:56;99891.91;;;18.27;75.03
68456;BME280;55437;55.046;38.838;2023-08-30T05:55:23;99886.78;;;18.40;74.65
68456;BME280;55437;55.046;38.838;2023-08-30T05:57:48;99894.13;;;18.47;74.08
68456;BME280;55437;55.046;38.838;2023-08-30T06:00:15;99895.19;;;18.57;73.71
68456;BME280;55437;55.046;38.838;2023-08-30T06:02:43;99891.53;;;18.74;73.32
68456;BME280;55437;55.046;38.838;2023-08-30T06:05:10;99892.16;;;18.78;72.59
68456;BME280;55437;55.046;38.838;2023-08-30T06:07:35;99896.84;;;18.85;71.80
68456;BME280;55437;55.046;38.838;2023-08-30T06:10:01;99896.75;;;18.87;71.29
68456;BME280;55437;55.046;38.838;2023-08-30T06:12:30;99896.47;;;18.91;71.41
68456;BME280;55437;55.046;38.838;2023-08-30T06:14:56;99905.50;;;18.86;71.22
68456;BME280;55437;55.046;38.838;2023-08-30T06:17:21;99904.16;;;18.80;71.12
68456;BME280;55437;55.046;38.838;2023-08-30T06:19:47;99911.75;;;18.83;71.21
68456;BME280;55437;55.046;38.838;2023-08-30T06:22:14;99909.97;;;18.84;71.07
68456;BME280;55437;55.046;38.838;2023-08-30T06:24:40;99911.13;;;18.80;70.69
68456;BME280;55437;55.046;38.838;2023-08-30T06:27:06;99918.47;;;18.73;71.17
68456;BME280;55437;55.046;38.838;2023-08-30T06:29:32;99920.03;;;18.76;71.21
68456;BME280;55437;55.046;38.838;2023-08-30T06:31:58;99926.41;;;18.57;71.72
68456;BME280;55437;55.046;38.838;2023-08-30T06:34:28;99920.91;;;18.21;72.19
68456;BME280;55437;55.046;38.838;2023-08-30T06:36:54;99924.72;;;18.01;72.53
68456;BME280;55437;55.046;38.838;2023-08-30T06:39:20;99920.75;;;17.95;72.70
68456;BME280;55437;55.046;38.838;2023-08-30T06:41:46;99917.56;;;17.90;73.01
68456;BME280;55437;55.046;38.838;2023-08-30T06:44:14;99923.44;;;17.94;72.90
68456;BME280;55437;55.046;38.838;2023-08-30T06:46:41;99921.09;;;18.04;72.93
68456;BME280;55437;55.046;38.838;2023-08-30T06:49:07;99908.19;;;18.16;72.52
68456;BME280;55437;55.046;38.838;2023-08-30T06:51:35;99915.88;;;18.32;72.30
68456;BME280;55437;55.046;38.838;2023-08-30T06:54:01;99915.47;;;18.38;71.96
68456;BME280;55437;55.046;38.838;2023-08-30T06:56:27;99902.63;;;18.49;71.36
68456;BME280;55437;55.046;38.838;2023-08-30T06:58:53;99906.72;;;18.53;70.66
68456;BME280;55437;55.046;38.838;2023-08-30T07:01:19;99909.94;;;18.71;70.63
68456;BME280;55437;55.046;38.838;2023-08-30T07:03:45;99910.59;;;18.87;70.19
68456;BME280;55437;55.046;38.838;2023-08-30T07:06:12;99912.09;;;18.91;69.97
68456;BME280;55437;55.046;38.838;2023-08-30T07:08:38;99921.84;;;18.88;69.72
68456;BME280;55437;55.046;38.838;2023-08-30T07:11:04;99924.88;;;18.82;69.59
68456;BME280;55437;55.046;38.838;2023-08-30T07:13:30;99920.44;;;18.69;69.52
68456;BME280;55437;55.046;38.838;2023-08-30T07:15:56;99925.34;;;18.74;69.48
68456;BME280;55437;55.046;38.838;2023-08-30T07:18:23;99927.19;;;18.72;69.44
68456;BME280;55437;55.046;38.838;2023-08-30T07:20:49;99921.19;;;18.72;69.29
68456;BME280;55437;55.046;38.838;2023-08-30T07:23:14;99911.13;;;18.80;69.15
68456;BME280;55437;55.046;38.838;2023-08-30T07:25:40;99915.81;;;18.87;68.77
68456;BME280;55437;55.046;38.838;2023-08-30T07:28:08;99923.38;;;19.04;68.49
68456;BME280;55437;55.046;38.838;2023-08-30T07:30:34;99926.78;;;19.70;67.46
68456;BME280;55437;55.046;38.838;2023-08-30T07:33:01;99927.31;;;20.00;66.72
68456;BME280;55437;55.046;38.838;2023-08-30T07:35:27;99933.06;;;20.29;65.19
68456;BME280;55437;55.046;38.838;2023-08-30T07:37:52;99932.75;;;20.94;63.67
68456;BME280;55437;55.046;38.838;2023-08-30T07:40:18;99928.81;;;21.12;61.69
68456;BME280;55437;55.046;38.838;2023-08-30T07:42:45;99922.47;;;21.04;61.81
68456;BME280;55437;55.046;38.838;2023-08-30T07:45:12;99918.63;;;20.85;62.58
68456;BME280;55437;55.046;38.838;2023-08-30T07:47:39;99921.50;;;20.70;62.78
68456;BME280;55437;55.046;38.838;2023-08-30T07:50:07;99929.16;;;20.60;62.63
68456;BME280;55437;55.046;38.838;2023-08-30T07:52:33;99912.16;;;20.55;62.69
68456;BME280;55437;55.046;38.838;2023-08-30T07:54:59;99918.66;;;20.49;62.96
68456;BME280;55437;55.046;38.838;2023-08-30T07:57:24;99926.56;;;20.60;62.82
68456;BME280;55437;55.046;38.838;2023-08-30T07:59:50;99930.38;;;20.67;62.84
68456;BME280;55437;55.046;38.838;2023-08-30T08:02:16;99917.91;;;20.60;62.59
68456;BME280;55437;55.046;38.838;2023-08-30T08:04:41;99920.81;;;20.55;62.67
68456;BME280;55437;55.046;38.838;2023-08-30T08:07:08;99924.06;;;20.59;62.40
68456;BME280;55437;55.046;38.838;2023-08-30T08:09:34;99935.13;;;20.62;62.25
68456;BME280;55437;55.046;38.838;2023-08-30T08:12:00;99925.41;;;20.64;61.92
68456;BME280;55437;55.046;38.838;2023-08-30T08:14:26;99928.50;;;20.69;61.37
68456;BME280;55437;55.046;38.838;2023-08-30T08:16:52;99936.84;;;20.74;61.55
68456;BME280;55437;55.046;38.838;2023-08-30T08:19:36;99934.66;;;20.68;61.63
68456;BME280;55437;55.046;38.838;2023-08-30T08:22:08;99937.63;;;20.64;61.37
68456;BME280;55437;55.046;38.838;2023-08-30T08:24:33;99946.97;;;20.66;61.67
68456;BME280;55437;55.046;38.838;2023-08-30T08:26:59;99944.81;;;20.84;61.94
68456;BME280;55437;55.046;38.838;2023-08-30T08:29:27;99952.59;;;20.97;61.49
68456;BME280;55437;55.046;38.838;2023-08-30T08:31:54;99944.97;;;21.17;60.64
68456;BME280;55437;55.046;38.838;2023-08-30T08:34:20;99945.31;;;21.37;59.96
68456;BME280;55437;55.046;38.838;2023-08-30T08:36:45;99946.81;;;21.39;59.55
68456;BME280;55437;55.046;38.838;2023-08-30T08:39:11;99941.16;;;21.45;59.43
68456;BME280;55437;55.046;38.838;2023-08-30T08:41:44;99935.56;;;21.50;58.70
68456;BME280;55437;55.046;38.838;2023-08-30T08:44:11;99927.16;;;21.58;58.66
68456;BME280;55437;55.046;38.838;2023-08-30T08:46:38;99932.75;;;21.75;58.48
68456;BME280;55437;55.046;38.838;2023-08-30T08:49:11;99934.81;;;21.83;58.29
68456;BME280;55437;55.046;38.838;2023-08-30T08:51:37;99934.81;;;21.83;57.98
68456;BME280;55437;55.046;38.838;2023-08-30T08:54:04;99930.88;;;21.77;57.87
68456;BME280;55437;55.046;38.838;2023-08-30T08:56:31;99935.38;;;21.75;57.82
68456;BME280;55437;55.046;38.838;2023-08-30T08:58:58;99932.75;;;21.64;57.16
68456;BME280;55437;55.046;38.838;2023-08-30T09:01:25;99940.34;;;21.67;57.41
68456;BME280;55437;55.046;38.838;2023-08-30T09:03:51;99944.88;;;21.87;57.11
68456;BME280;55437;55.046;38.838;2023-08-30T09:06:18;99930.66;;;22.03;56.70
68456;BME280;55437;55.046;38.838;2023-08-30T09:08:44;99938.16;;;22.07;56.43
68456;BME280;55437;55.046;38.838;2023-08-30T09:11:12;99937.09;;;22.21;56.14
68456;BME280;55437;55.046;38.838;2023-08-30T09:13:38;99948.13;;;22.24;55.47
68456;BME280;55437;55.046;38.838;2023-08-30T09:16:14;99948.97;;;22.25;55.27
68456;BME280;55437;55.046;38.838;2023-08-30T09:18:43;99943.47;;;22.39;55.17
68456;BME280;55437;55.046;38.838;2023-08-30T09:21:10;99955.47;;;22.53;55.27
68456;BME280;55437;55.046;38.838;2023-08-30T09:23:37;99962.47;;;22.63;54.85
68456;BME280;55437;55.046;38.838;2023-08-30T09:26:04;99964.44;;;22.71;54.93
68456;BME280;55437;55.046;38.838;2023-08-30T09:28:31;99963.16;;;22.77;54.29
68456;BME280;55437;55.046;38.838;2023-08-30T09:30:58;99959.28;;;22.38;54.04
68456;BME280;55437;55.046;38.838;2023-08-30T09:33:32;99972.13;;;21.96;54.15
68456;BME280;55437;55.046;38.838;2023-08-30T09:36:00;99981.03;;;21.82;54.24
68456;BME280;55437;55.046;38.838;2023-08-30T09:38:26;99974.94;;;21.60;54.36
68456;BME280;55437;55.046;38.838;2023-08-30T09:41:03;99961.44;;;21.42;54.32
68456;BME280;55437;55.046;38.838;2023-08-30T09:43:29;99965.41;;;21.59;53.91
68456;BME280;55437;55.046;38.838;2023-08-30T09:45:57;99968.91;;;21.81;54.01
68456;BME280;55437;55.046;38.838;2023-08-30T09:48:27;99966.50;;;21.78;53.50
68456;BME280;55437;55.046;38.838;2023-08-30T09:50:54;99975.78;;;21.82;54.19
68456;BME280;55437;55.046;38.838;2023-08-30T09:53:21;99983.66;;;21.93;54.06
68456;BME280;55437;55.046;38.838;2023-08-30T09:55:52;99992.22;;;21.96;53.45
68456;BME280;55437;55.046;38.838;2023-08-30T09:58:21;99988.03;;;21.93;53.04
68456;BME280;55437;55.046;38.838;2023-08-30T10:00:48;99994.34;;;21.90;52.45
68456;BME280;55437;55.046;38.838;2023-08-30T10:03:15;99995.81;;;22.06;52.52
68456;BME280;55437;55.046;38.838;2023-08-30T10:05:45;99988.31;;;22.12;52.12
68456;BME280;55437;55.046;38.838;2023-08-30T10:08:14;99997.72;;;22.15;51.81
68456;BME280;55437;55.046;38.838;2023-08-30T10:10:39;99993.38;;;21.91;51.96
68456;BME280;55437;55.046;38.838;2023-08-30T10:13:06;99995.16;;;21.91;52.35
68456;BME280;55437;55.046;38.838;2023-08-30T10:15:33;99990.09;;;22.12;52.48
68456;BME280;55437;55.046;38.838;2023-08-30T10:18:02;99991.91;;;22.34;51.71
68456;BME280;55437;55.046;38.838;2023-08-30T10:20:29;99994.72;;;22.53;51.66
68456;BME280;55437;55.046;38.838;2023-08-30T10:22:57;100003.63;;;22.61;52.11
68456;BME280;55437;55.046;38.838;2023-08-30T10:25:29;99986.16;;;22.40;51.26
68456;BME280;55437;55.046;38.838;2023-08-30T10:27:56;99985.44;;;22.38;51.73
68456;BME280;55437;55.046;38.838;2023-08-30T10:30:23;99988.31;;;22.46;52.09
68456;BME280;55437;55.046;38.838;2023-08-30T10:32:50;99980.69;;;22.54;51.50
68456;BME280;55437;55.046;38.838;2023-08-30T10:35:18;99984.97;;;22.44;51.10
68456;BME280;55437;55.046;38.838;2023-08-30T10:37:56;99977.63;;;22.26;51.27
68456;BME280;55437;55.046;38.838;2023-08-30T10:40:23;99982.63;;;22.18;51.66
68456;BME280;55437;55.046;38.838;2023-08-30T10:42:59;99980.34;;;22.14;52.18
68456;BME280;55437;55.046;38.838;2023-08-30T10:45:25;99980.94;;;22.06;52.47
68456;BME280;55437;55.046;38.838;2023-08-30T10:47:55;99987.81;;;21.85;52.71
68456;BME280;55437;55.046;38.838;2023-08-30T10:50:28;99971.59;;;21.58;52.94
68456;BME280;55437;55.046;38.838;2023-08-30T10:52:56;99976.41;;;21.40;53.30
68456;BME280;55437;55.046;38.838;2023-08-30T10:55:22;99974.59;;;21.29;53.87
68456;BME280;55437;55.046;38.838;2023-08-30T10:58:01;99977.09;;;21.31;54.13
68456;BME280;55437;55.046;38.838;2023-08-30T11:00:30;99977.09;;;21.31;53.81
68456;BME280;55437;55.046;38.838;2023-08-30T11:02:56;99974.41;;;21.43;54.26
68456;BME280;55437;55.046;38.838;2023-08-30T11:05:24;99969.91;;;21.45;53.42
68456;BME280;55437;55.046;38.838;2023-08-30T11:07:51;99977.81;;;21.33;53.27
68456;BME280;55437;55.046;38.838;2023-08-30T11:10:19;99974.78;;;21.02;53.60
68456;BME280;55437;55.046;38.838;2023-08-30T11:12:46;99975.47;;;20.93;53.82
68456;BME280;55437;55.046;38.838;2023-08-30T11:15:14;99972.88;;;20.93;54.13
68456;BME280;55437;55.046;38.838;2023-08-30T11:17:41;99971.25;;;21.03;53.87
68456;BME280;55437;55.046;38.838;2023-08-30T11:20:17;99966.13;;;21.26;53.73
68456;BME280;55437;55.046;38.838;2023-08-30T11:22:47;99967.84;;;21.38;53.69
68456;BME280;55437;55.046;38.838;2023-08-30T11:25:14;99974.47;;;21.31;53.84
68456;BME280;55437;55.046;38.838;2023-08-30T11:27:41;99973.91;;;21.14;54.26
68456;BME280;55437;55.046;38.838;2023-08-30T11:30:08;99976.13;;;21.08;54.32
68456;BME280;55437;55.046;38.838;2023-08-30T11:32:41;99979.00;;;21.16;54.85
68456;BME280;55437;55.046;38.838;2023-08-30T11:37:57;99964.50;;;21.25;55.03
68456;BME280;55437;55.046;38.838;2023-08-30T11:40:24;99967.25;;;21.34;54.88
68456;BME280;55437;55.046;38.838;2023-08-30T11:42:50;99967.72;;;21.39;54.79
68456;BME280;55437;55.046;38.838;2023-08-30T11:45:16;99968.66;;;21.38;54.79
68456;BME280;55437;55.046;38.838;2023-08-30T11:47:43;99965.84;;;21.17;54.60
68456;BME280;55437;55.046;38.838;2023-08-30T11:50:09;99965.81;;;21.06;55.16
68456;BME280;55437;55.046;38.838;2023-08-30T11:52:36;99964.81;;;20.96;55.34
68456;BME280;55437;55.046;38.838;2023-08-30T11:55:03;99971.13;;;20.81;55.62
68456;BME280;55437;55.046;38.838;2023-08-30T11:57:38;99981.03;;;20.65;55.92
68456;BME280;55437;55.046;38.838;2023-08-30T12:00:11;99983.25;;;20.45;56.11
68456;BME280;55437;55.046;38.838;2023-08-30T12:02:39;99988.19;;;20.37;56.43
68456;BME280;55437;55.046;38.838;2023-08-30T12:05:06;99976.09;;;20.36;56.65
68456;BME280;55437;55.046;38.838;2023-08-30T12:07:36;99976.16;;;20.35;56.56
68456;BME280;55437;55.046;38.838;2023-08-30T12:10:06;99987.53;;;20.46;56.20
68456;BME280;55437;55.046;38.838;2023-08-30T12:12:33;99981.06;;;20.52;56.03
68456;BME280;55437;55.046;38.838;2023-08-30T12:14:59;99971.84;;;20.59;56.03
68456;BME280;55437;55.046;38.838;2023-08-30T12:17:24;99972.47;;;20.63;55.67
68456;BME280;55437;55.046;38.838;2023-08-30T12:19:57;99964.44;;;20.53;55.27
68456;BME280;55437;55.046;38.838;2023-08-30T12:22:23;99975.22;;;20.48;54.97
68456;BME280;55437;55.046;38.838;2023-08-30T12:24:49;99969.81;;;20.39;55.27
68456;BME280;55437;55.046;38.838;2023-08-30T12:27:15;99977.53;;;20.28;55.64
68456;BME280;55437;55.046;38.838;2023-08-30T12:29:41;99976.25;;;20.33;56.08
68456;BME280;55437;55.046;38.838;2023-08-30T12:32:07;99972.34;;;20.40;56.11
68456;BME280;55437;55.046;38.838;2023-08-30T12:34:34;99964.50;;;20.40;56.16
68456;BME280;55437;55.046;38.838;2023-08-30T12:37:00;99956.44;;;20.43;56.17
68456;BME280;55437;55.046;38.838;2023-08-30T12:39:27;99959.41;;;20.39;56.47
68456;BME280;55437;55.046;38.838;2023-08-30T12:41:53;99955.50;;;20.32;56.51
68456;BME280;55437;55.046;38.838;2023-08-30T12:44:19;99950.41;;;20.18;56.72
68456;BME280;55437;55.046;38.838;2023-08-30T12:46:46;99951.78;;;20.10;56.27
68456;BME280;55437;55.046;38.838;2023-08-30T12:49:12;99944.19;;;20.07;56.40
68456;BME280;55437;55.046;38.838;2023-08-30T12:51:38;99950.66;;;20.02;56.34
68456;BME280;55437;55.046;38.838;2023-08-30T12:54:04;99942.09;;;20.00;56.43
68456;BME280;55437;55.046;38.838;2023-08-30T12:56:29;99946.06;;;20.05;57.14
68456;BME280;55437;55.046;38.838;2023-08-30T12:58:55;99939.03;;;20.19;57.15
68456;BME280;55437;55.046;38.838;2023-08-30T13:01:21;99949.69;;;20.28;57.14